Time;durP1;ratioP1;P1;durP2;ratioP2;P2;SDS_P1;SDS_P2;PMS_P1;PMS_P2;Temp;Humidity;BMP_temperature;BMP_pressure;BME280_temperature;BME280_humidity;BME280_pressure;Samples;Min_cycle;Max_cycle;Signal;HPM_P1;HPM_P2
2024/04/17 00:01:51;;;;;;;4.95;2.38;;;;;;;3.61;100.00;96436.28;5329158;26;20080;-61
2024/04/17 00:04:18;;;;;;;5.03;2.65;;;;;;;3.70;100.00;96445.59;5319093;26;20011;-61
2024/04/17 00:06:45;;;;;;;5.20;2.78;;;;;;;3.75;100.00;96434.19;5330059;26;20009;-61
2024/04/17 00:09:12;;;;;;;4.50;2.28;;;;;;;3.80;100.00;96454.91;5329843;26;19997;-62
2024/04/17 00:11:39;;;;;;;6.40;3.70;;;;;;;3.75;100.00;96445.72;5331058;26;20016;-61
2024/04/17 00:14:06;;;;;;;5.45;2.85;;;;;;;3.81;100.00;96460.03;5327747;26;20005;-62
2024/04/17 00:16:32;;;;;;;7.85;3.40;;;;;;;3.92;100.00;96469.13;5330888;26;20806;-59
2024/04/17 00:18:59;;;;;;;6.57;3.92;;;;;;;3.88;100.00;96466.09;5330456;26;20005;-62
2024/04/17 00:21:26;;;;;;;8.93;4.38;;;;;;;3.87;100.00;96459.09;5329170;26;20005;-62
2024/04/17 00:23:52;;;;;;;8.07;4.00;;;;;;;3.95;100.00;96463.34;5330389;26;20016;-62
2024/04/17 00:26:19;;;;;;;8.13;4.03;;;;;;;3.88;100.00;96451.91;5327760;26;20023;-61
2024/04/17 00:28:46;;;;;;;7.47;4.07;;;;;;;3.84;100.00;96453.41;5324374;26;20041;-62
2024/04/17 00:31:14;;;;;;;7.28;3.97;;;;;;;3.89;100.00;96448.16;5336740;26;20013;-62
2024/04/17 00:33:40;;;;;;;6.57;3.95;;;;;;;3.90;100.00;96450.63;5330372;26;20012;-62
2024/04/17 00:36:07;;;;;;;5.53;3.60;;;;;;;3.90;100.00;96460.50;5327110;26;20005;-62
2024/04/17 00:38:34;;;;;;;8.15;3.60;;;;;;;3.84;100.00;96446.19;5329962;26;20531;-61
2024/04/17 00:41:00;;;;;;;5.50;3.55;;;;;;;3.87;100.00;96440.38;5329741;26;20048;-61
2024/04/17 00:43:27;;;;;;;6.88;3.72;;;;;;;3.87;100.00;96451.06;5326598;26;20816;-62
2024/04/17 00:45:54;;;;;;;6.13;3.58;;;;;;;3.88;100.00;96462.63;5323308;26;20539;-62
2024/04/17 00:48:22;;;;;;;6.25;3.08;;;;;;;3.80;100.00;96439.69;5328409;26;20069;-61
2024/04/17 00:50:51;;;;;;;5.45;3.10;;;;;;;3.75;100.00;96432.31;5328487;26;20738;-62
2024/04/17 00:53:22;;;;;;;5.47;3.42;;;;;;;3.79;100.00;96426.50;5328310;26;20010;-62
2024/04/17 00:55:50;;;;;;;4.90;2.83;;;;;;;3.79;100.00;96430.00;5330246;26;20005;-61
2024/04/17 00:58:17;;;;;;;6.05;3.30;;;;;;;3.75;100.00;96432.31;5326728;26;20041;-62
2024/04/17 01:00:44;;;;;;;7.32;4.05;;;;;;;3.74;100.00;96421.84;5329419;26;20035;-61
2024/04/17 01:03:11;;;;;;;6.43;3.80;;;;;;;3.73;100.00;96428.25;5320505;26;20044;-62
2024/04/17 01:05:37;;;;;;;6.28;3.35;;;;;;;3.76;100.00;96430.47;5317636;26;20080;-62
2024/04/17 01:08:06;;;;;;;6.07;3.78;;;;;;;3.72;100.00;96427.44;5326807;26;20011;-61
2024/04/17 01:10:33;;;;;;;7.60;4.28;;;;;;;3.75;100.00;96429.66;5328187;26;20012;-61
2024/04/17 01:13:00;;;;;;;6.60;3.97;;;;;;;3.72;100.00;96419.41;5329180;26;20005;-62
2024/04/17 01:15:27;;;;;;;9.52;5.32;;;;;;;3.74;100.00;96421.84;5328050;26;20549;-59
2024/04/17 01:17:54;;;;;;;7.05;4.55;;;;;;;3.85;100.00;96414.88;5328613;26;20000;-61
2024/04/17 01:20:20;;;;;;;6.90;4.70;;;;;;;3.83;100.00;96417.78;5307099;26;20452;-62
2024/04/17 01:22:47;;;;;;;7.22;4.97;;;;;;;3.81;100.00;96419.06;5327520;26;20001;-62
2024/04/17 01:25:14;;;;;;;6.60;4.30;;;;;;;3.72;100.00;96416.72;5328442;26;20002;-61
2024/04/17 01:27:41;;;;;;;7.18;4.70;;;;;;;3.82;100.00;96418.00;5324303;26;20040;-61
2024/04/17 01:30:08;;;;;;;8.60;5.50;;;;;;;3.85;100.00;96404.97;5335761;26;20075;-61
2024/04/17 01:32:35;;;;;;;9.88;5.57;;;;;;;3.87;100.00;96404.75;5329323;26;20589;-59
2024/04/17 01:35:02;;;;;;;6.65;4.50;;;;;;;3.86;100.00;96401.25;5323431;26;20083;-61
2024/04/17 01:37:29;;;;;;;8.00;4.82;;;;;;;3.88;100.00;96409.06;5314311;26;20016;-61
2024/04/17 01:39:55;;;;;;;7.95;5.13;;;;;;;3.82;100.00;96407.28;5329121;26;20115;-61
2024/04/17 01:42:22;;;;;;;11.90;5.60;;;;;;;3.81;100.00;96403.81;5326118;26;20041;-61
2024/04/17 01:44:48;;;;;;;8.63;4.68;;;;;;;3.79;100.00;96410.44;5329276;26;20001;-61
2024/04/17 01:47:15;;;;;;;8.85;5.18;;;;;;;3.80;100.00;96415.56;5317587;26;20326;-60
2024/04/17 01:49:42;;;;;;;7.88;4.75;;;;;;;3.81;100.00;96411.03;5332690;26;20015;-60
2024/04/17 01:52:08;;;;;;;7.30;5.00;;;;;;;3.80;100.00;96410.22;5329015;26;20028;-61
2024/04/17 01:54:35;;;;;;;7.75;4.85;;;;;;;3.82;100.00;96420.69;5333344;26;20074;-61
2024/04/17 01:57:02;;;;;;;6.82;4.50;;;;;;;3.80;100.00;96415.56;5330972;26;20013;-61
2024/04/17 01:59:28;;;;;;;8.05;4.80;;;;;;;3.82;100.00;96423.34;5320443;26;20032;-61
2024/04/17 02:01:55;;;;;;;8.50;5.30;;;;;;;3.81;100.00;96432.44;5329082;26;20005;-60
2024/04/17 02:04:21;;;;;;;7.45;4.82;;;;;;;3.84;100.00;96438.13;5328228;26;20064;-60
2024/04/17 02:06:48;;;;;;;9.60;5.40;;;;;;;3.77;100.00;96432.09;5331907;26;20001;-61
2024/04/17 02:09:15;;;;;;;7.47;4.22;;;;;;;3.85;100.00;96444.31;5332621;26;20001;-60
2024/04/17 02:11:41;;;;;;;7.78;4.43;;;;;;;3.85;100.00;96425.56;5330373;26;20016;-60
2024/04/17 02:14:08;;;;;;;5.88;3.78;;;;;;;3.77;100.00;96405.31;5331871;26;20052;-61
2024/04/17 02:16:35;;;;;;;7.43;3.58;;;;;;;3.78;100.00;96404.28;5330158;26;20033;-61
2024/04/17 02:19:01;;;;;;;5.45;3.15;;;;;;;3.72;100.00;96402.53;5320970;26;20896;-61
2024/04/17 02:21:28;;;;;;;5.00;2.72;;;;;;;3.71;100.00;96404.38;5329655;26;20016;-60
2024/04/17 02:23:54;;;;;;;4.95;3.22;;;;;;;3.70;100.00;96420.69;5331560;26;20018;-61
2024/04/17 02:26:21;;;;;;;4.63;2.60;;;;;;;3.60;100.00;96415.88;5329474;26;20001;-62
2024/04/17 02:28:47;;;;;;;4.20;2.38;;;;;;;3.48;100.00;96415.88;5328925;26;20412;-61
2024/04/17 02:31:14;;;;;;;3.97;2.15;;;;;;;3.53;100.00;96423.22;5339212;26;20013;-61
2024/04/17 02:33:41;;;;;;;5.88;2.25;;;;;;;3.46;100.00;96429.47;5315930;26;20373;-61
2024/04/17 02:36:08;;;;;;;4.90;2.65;;;;;;;3.49;100.00;96428.19;5326286;26;20019;-62
2024/04/17 02:38:34;;;;;;;4.43;2.58;;;;;;;3.44;100.00;96423.56;5333407;26;20473;-62
2024/04/17 02:41:01;;;;;;;3.95;2.03;;;;;;;3.45;100.00;96417.16;5329344;26;20536;-60
2024/04/17 02:43:28;;;;;;;4.22;2.35;;;;;;;3.43;100.00;96429.94;5330312;26;20009;-59
2024/04/17 02:45:54;;;;;;;4.57;2.38;;;;;;;3.49;100.00;96426.34;5332760;26;20005;-61
2024/04/17 02:48:21;;;;;;;4.07;1.98;;;;;;;3.51;100.00;96428.81;5323937;26;20016;-60
2024/04/17 02:50:47;;;;;;;4.38;2.85;;;;;;;3.54;100.00;96425.66;5332679;26;20009;-61
2024/04/17 02:53:14;;;;;;;5.28;2.38;;;;;;;3.51;100.00;96420.78;5328905;26;20075;-61
2024/04/17 02:55:41;;;;;;;5.78;2.80;;;;;;;3.47;100.00;96425.75;5332344;26;20017;-61
2024/04/17 02:58:07;;;;;;;5.10;2.70;;;;;;;3.50;100.00;96419.13;5327709;26;19997;-61
2024/04/17 03:00:34;;;;;;;4.25;2.47;;;;;;;3.48;100.00;96422.06;5339580;26;20143;-61
2024/04/17 03:03:04;;;;;;;5.68;2.78;;;;;;;3.51;100.00;96426.94;5336348;26;20001;-62
2024/04/17 03:05:33;;;;;;;6.72;3.00;;;;;;;3.47;100.00;96424.97;5318835;26;20032;-61
2024/04/17 03:08:00;;;;;;;4.82;2.33;;;;;;;3.48;100.00;96431.94;5331544;26;20345;-61
2024/04/17 03:10:27;;;;;;;4.93;2.53;;;;;;;3.45;100.00;96433.22;5343678;26;20017;-62
2024/04/17 03:12:53;;;;;;;4.55;2.67;;;;;;;3.43;100.00;96431.81;5330334;26;20052;-61
2024/04/17 03:15:20;;;;;;;4.45;2.55;;;;;;;3.47;100.00;96428.44;5330384;26;20020;-62
2024/04/17 03:17:46;;;;;;;5.85;2.47;;;;;;;3.52;100.00;96438.47;5328930;26;20079;-62
2024/04/17 03:20:13;;;;;;;3.95;2.15;;;;;;;3.50;100.00;96436.00;5326769;26;20015;-62
2024/04/17 03:22:41;;;;;;;4.20;2.63;;;;;;;3.39;100.00;96426.09;5327237;26;20009;-61
2024/04/17 03:25:08;;;;;;;4.03;2.33;;;;;;;3.36;100.00;96424.69;5329659;26;20005;-60
2024/04/17 03:27:34;;;;;;;4.63;2.33;;;;;;;3.36;100.00;96429.25;5323213;26;20020;-62
2024/04/17 03:30:01;;;;;;;3.55;1.63;;;;;;;3.34;100.00;96432.13;5337303;26;20433;-62
2024/04/17 03:32:28;;;;;;;3.20;1.42;;;;;;;3.39;100.00;96423.41;5330516;26;20056;-62
2024/04/17 03:34:54;;;;;;;2.97;1.65;;;;;;;3.38;100.00;96427.97;5331193;26;20862;-62
2024/04/17 03:37:21;;;;;;;3.80;2.00;;;;;;;3.41;100.00;96431.22;5330349;26;20051;-61
2024/04/17 03:39:47;;;;;;;5.00;2.35;;;;;;;3.35;100.00;96438.28;5332950;26;20060;-62
2024/04/17 03:42:14;;;;;;;3.67;2.30;;;;;;;3.27;100.00;96439.44;5326901;26;20009;-62
2024/04/17 03:44:42;;;;;;;4.95;2.40;;;;;;;3.29;100.00;96441.88;5331525;26;19997;-62
2024/04/17 03:47:08;;;;;;;3.42;2.10;;;;;;;3.32;100.00;96454.81;5329308;26;20019;-62
2024/04/17 03:49:35;;;;;;;4.15;2.53;;;;;;;3.40;100.00;96467.06;5331875;26;20000;-62
2024/04/17 03:52:02;;;;;;;4.68;2.55;;;;;;;3.42;100.00;96462.31;5323168;26;20013;-62
2024/04/17 03:54:28;;;;;;;4.85;2.75;;;;;;;3.56;100.00;96495.84;5317390;26;20021;-62
2024/04/17 03:56:55;;;;;;;5.80;2.97;;;;;;;3.71;100.00;96524.03;5331287;26;20009;-62
2024/04/17 03:59:22;;;;;;;6.65;3.90;;;;;;;3.68;100.00;96519.97;5330012;26;20008;-62
2024/04/17 04:01:48;;;;;;;7.13;3.85;;;;;;;3.73;100.00;96517.41;5331421;26;20725;-62
2024/04/17 04:04:15;;;;;;;6.63;3.67;;;;;;;3.80;100.00;96519.19;5327573;26;20078;-62
2024/04/17 04:06:42;;;;;;;8.75;4.32;;;;;;;3.75;100.00;96504.63;5328847;26;20096;-62
2024/04/17 04:09:08;;;;;;;5.70;4.10;;;;;;;3.60;100.00;96480.97;5321285;26;20462;-62
2024/04/17 04:11:35;;;;;;;7.75;4.30;;;;;;;3.69;100.00;96489.47;5330205;26;20083;-62
2024/04/17 04:14:02;;;;;;;7.00;4.65;;;;;;;3.70;100.00;96499.16;5332160;26;20013;-60
2024/04/17 04:16:29;;;;;;;8.30;5.07;;;;;;;3.71;100.00;96505.31;5330204;26;20086;-61
2024/04/17 04:18:55;;;;;;;8.73;4.93;;;;;;;3.70;100.00;96501.81;5328436;26;20001;-62
2024/04/17 04:21:22;;;;;;;7.72;5.28;;;;;;;3.66;100.00;96489.94;5330258;26;20001;-60
2024/04/17 04:23:48;;;;;;;9.43;5.78;;;;;;;3.65;100.00;96474.94;5331220;26;19997;-61
2024/04/17 04:26:15;;;;;;;7.85;5.00;;;;;;;3.60;100.00;96475.59;5328936;26;20009;-62
2024/04/17 04:28:42;;;;;;;8.98;5.35;;;;;;;3.63;100.00;96471.66;5330939;26;20056;-62
2024/04/17 04:31:09;;;;;;;9.25;5.55;;;;;;;3.51;100.00;96466.28;5334637;26;20707;-62
2024/04/17 04:33:35;;;;;;;8.95;5.47;;;;;;;3.50;100.00;96468.13;5330802;26;20015;-62
2024/04/17 04:36:02;;;;;;;8.73;5.25;;;;;;;3.55;100.00;96486.19;5329608;26;20480;-62
2024/04/17 04:38:29;;;;;;;9.23;5.25;;;;;;;3.48;100.00;96483.63;5329668;26;20531;-62
2024/04/17 04:40:55;;;;;;;10.10;5.97;;;;;;;3.52;100.00;96492.00;5327228;26;20652;-62
2024/04/17 04:43:22;;;;;;;10.95;6.57;;;;;;;3.56;100.00;96506.56;5326127;26;20005;-62
2024/04/17 04:45:48;;;;;;;11.00;5.95;;;;;;;3.38;100.00;96492.19;5324675;26;20006;-62
2024/04/17 04:48:15;;;;;;;12.20;6.75;;;;;;;3.54;100.00;96516.66;5324903;26;20016;-62
2024/04/17 04:50:43;;;;;;;10.40;6.20;;;;;;;3.38;100.00;96518.13;5331829;26;20005;-62
2024/04/17 04:53:09;;;;;;;13.45;6.53;;;;;;;3.46;100.00;96507.09;5329792;26;20078;-62
2024/04/17 04:55:36;;;;;;;11.68;6.10;;;;;;;3.44;100.00;96503.84;5318223;26;20484;-62
2024/04/17 04:58:03;;;;;;;12.48;7.20;;;;;;;3.39;100.00;96487.63;5349724;26;19996;-62
2024/04/17 05:00:29;;;;;;;13.13;6.25;;;;;;;3.57;100.00;96510.84;5365104;26;20000;-62
2024/04/17 05:02:56;;;;;;;12.38;6.72;;;;;;;3.67;100.00;96539.75;5352238;26;20475;-62
2024/04/17 05:05:22;;;;;;;13.50;7.15;;;;;;;3.56;100.00;96505.72;5311855;26;20017;-62
2024/04/17 05:07:49;;;;;;;12.00;6.38;;;;;;;3.52;100.00;96502.69;5317398;26;20132;-62
2024/04/17 05:10:16;;;;;;;12.82;6.53;;;;;;;3.64;100.00;96519.63;5332242;26;20008;-62
2024/04/17 05:12:42;;;;;;;12.68;6.88;;;;;;;3.68;100.00;96535.22;5365810;26;20555;-62
2024/04/17 05:15:09;;;;;;;12.55;7.25;;;;;;;3.74;100.00;96529.78;5362626;26;20011;-62
2024/04/17 05:17:36;;;;;;;13.02;7.00;;;;;;;3.73;100.00;96527.31;5334177;26;20015;-62
2024/04/17 05:20:02;;;;;;;12.05;6.30;;;;;;;3.82;100.00;96533.97;5329771;26;20024;-62
2024/04/17 05:22:29;;;;;;;13.18;6.35;;;;;;;3.80;100.00;96522.69;5316129;26;20015;-62
2024/04/17 05:24:56;;;;;;;13.75;7.40;;;;;;;3.70;100.00;96511.72;5331409;26;20086;-62
2024/04/17 05:27:22;;;;;;;11.65;7.32;;;;;;;3.75;100.00;96526.03;5347615;26;20012;-61
2024/04/17 05:29:49;;;;;;;13.35;7.30;;;;;;;3.81;100.00;96520.81;5326744;26;20034;-62
2024/04/17 05:32:15;;;;;;;13.52;7.90;;;;;;;3.83;100.00;96513.38;5322689;26;20005;-62
2024/04/17 05:34:42;;;;;;;12.88;7.55;;;;;;;3.90;100.00;96527.47;5323550;26;20002;-62
2024/04/17 05:37:09;;;;;;;14.68;7.32;;;;;;;4.09;100.00;96530.06;5338818;26;20344;-62
2024/04/17 05:39:35;;;;;;;13.98;7.60;;;;;;;3.98;100.00;96521.78;5328343;26;20009;-62
2024/04/17 05:42:02;;;;;;;13.32;8.50;;;;;;;3.91;100.00;96510.38;5339683;26;20004;-61
2024/04/17 05:44:30;;;;;;;15.05;9.18;;;;;;;4.02;100.00;96524.81;5343482;26;20005;-61
2024/04/17 05:46:57;;;;;;;15.00;7.70;;;;;;;4.12;100.00;96518.88;5318958;26;20005;-61
2024/04/17 05:49:24;;;;;;;13.27;7.90;;;;;;;3.91;100.00;96510.38;5341857;26;20012;-61
2024/04/17 05:51:50;;;;;;;14.55;8.57;;;;;;;3.91;100.00;96515.72;5335347;26;20609;-62
2024/04/17 05:54:17;;;;;;;13.70;8.07;;;;;;;4.02;100.00;96522.16;5346609;26;20410;-62
2024/04/17 05:56:43;;;;;;;13.57;8.18;;;;;;;4.07;100.00;96532.16;5320809;26;20534;-62
2024/04/17 05:59:10;;;;;;;13.27;8.52;;;;;;;4.08;100.00;96520.38;5332883;26;20078;-62
2024/04/17 06:01:37;;;;;;;13.93;8.27;;;;;;;3.99;100.00;96517.25;5332161;26;20013;-62
2024/04/17 06:04:03;;;;;;;11.27;7.78;;;;;;;4.07;100.00;96526.78;5334151;26;20492;-62
2024/04/17 06:06:30;;;;;;;11.80;6.80;;;;;;;4.01;100.00;96517.81;5342452;26;20008;-62
2024/04/17 06:08:57;;;;;;;12.55;7.43;;;;;;;4.06;100.00;96528.69;5332682;26;20005;-61
2024/04/17 06:11:24;;;;;;;10.63;6.43;;;;;;;3.91;100.00;96526.44;5331449;26;20012;-62
2024/04/17 06:13:51;;;;;;;10.10;6.80;;;;;;;3.93;100.00;96531.53;5340973;26;20004;-62
2024/04/17 06:16:18;;;;;;;12.45;8.52;;;;;;;3.99;100.00;96538.69;5327943;26;20002;-62
2024/04/17 06:18:44;;;;;;;11.80;7.65;;;;;;;3.99;100.00;96536.81;5346676;26;20008;-61
2024/04/17 06:21:11;;;;;;;12.25;7.85;;;;;;;3.95;100.00;96542.84;5332450;26;20001;-61
2024/04/17 06:23:38;;;;;;;11.77;8.15;;;;;;;3.98;100.00;96543.19;5322137;26;20006;-62
2024/04/17 06:26:04;;;;;;;13.45;8.02;;;;;;;3.97;100.00;96548.78;5359680;26;19996;-61
2024/04/17 06:28:31;;;;;;;11.35;6.97;;;;;;;3.77;100.00;96545.38;5346732;26;20549;-62
2024/04/17 06:30:58;;;;;;;11.40;6.85;;;;;;;3.83;100.00;96558.91;5348860;26;20001;-62
2024/04/17 06:33:24;;;;;;;10.65;6.60;;;;;;;3.92;100.00;96562.06;5328452;26;20027;-62
2024/04/17 06:35:51;;;;;;;14.52;7.72;;;;;;;3.87;100.00;96571.59;5335086;26;20005;-61
2024/04/17 06:38:21;;;;;;;12.52;7.32;;;;;;;4.02;100.00;96602.50;5314153;26;20000;-60
2024/04/17 06:40:48;;;;;;;12.85;7.55;;;;;;;3.92;100.00;96581.63;5343686;26;20086;-62
2024/04/17 06:43:16;;;;;;;12.77;7.38;;;;;;;3.91;100.00;96577.31;5336405;26;20861;-62
2024/04/17 06:45:45;;;;;;;13.07;7.18;;;;;;;3.79;100.00;96565.75;5347282;26;20020;-62
2024/04/17 06:48:13;;;;;;;10.80;6.80;;;;;;;3.78;100.00;96570.28;5330962;26;20017;-61
2024/04/17 06:50:40;;;;;;;9.80;5.43;;;;;;;3.82;100.00;96576.81;5346690;26;20045;-61
2024/04/17 06:53:07;;;;;;;9.35;5.07;;;;;;;3.72;100.00;96573.88;5315571;26;20012;-61
2024/04/17 06:55:34;;;;;;;9.88;5.28;;;;;;;3.61;100.00;96576.28;5338105;26;19997;-61
2024/04/17 06:58:01;;;;;;;8.15;4.45;;;;;;;3.81;100.00;96588.59;5337198;26;20480;-61
2024/04/17 07:00:32;;;;;;;6.38;3.60;;;;;;;3.59;100.00;96566.84;5327953;26;20049;-61
2024/04/17 07:02:59;;;;;;;6.45;3.75;;;;;;;3.73;100.00;96576.31;5329860;26;20079;-60
2024/04/17 07:05:31;;;;;;;6.18;3.17;;;;;;;3.70;100.00;96568.75;5343581;26;20015;-59
2024/04/17 07:07:58;;;;;;;6.60;3.60;;;;;;;3.89;100.00;96574.03;5332896;26;19996;-62
2024/04/17 07:10:25;;;;;;;7.97;3.97;;;;;;;3.94;100.00;96584.88;5325156;26;20004;-61
2024/04/17 07:12:51;;;;;;;7.25;4.18;;;;;;;3.97;100.00;96588.97;5328788;26;20009;-57
2024/04/17 07:15:18;;;;;;;7.10;3.80;;;;;;;3.71;100.00;96566.88;5328923;26;20020;-59
2024/04/17 07:17:45;;;;;;;7.60;4.32;;;;;;;3.86;100.00;96574.50;5329054;26;19997;-60
2024/04/17 07:20:15;;;;;;;7.65;4.18;;;;;;;3.68;100.00;96575.38;5331385;26;20009;-60
2024/04/17 07:22:42;;;;;;;8.05;4.15;;;;;;;3.73;100.00;96583.56;5329917;26;20012;-60
2024/04/17 07:25:10;;;;;;;8.10;4.45;;;;;;;3.86;100.00;96591.38;5330084;26;20005;-59
2024/04/17 07:27:40;;;;;;;5.38;3.10;;;;;;;3.68;100.00;96568.16;5332095;26;20001;-61
2024/04/17 07:30:08;;;;;;;6.28;3.75;;;;;;;3.80;100.00;96580.78;5331627;26;20012;-60
2024/04/17 07:32:34;;;;;;;9.10;4.25;;;;;;;3.93;100.00;96593.16;5337067;26;20019;-62
2024/04/17 07:35:01;;;;;;;8.27;3.97;;;;;;;3.92;100.00;96587.00;5359468;26;19997;-61
2024/04/17 07:37:30;;;;;;;7.68;4.88;;;;;;;4.18;100.00;96608.25;5344572;26;20505;-61
2024/04/17 07:39:57;;;;;;;8.07;4.47;;;;;;;4.20;100.00;96608.84;5360233;26;20012;-62
2024/04/17 07:42:23;;;;;;;9.02;4.63;;;;;;;4.16;100.00;96597.75;5335484;26;20348;-62
2024/04/17 07:44:50;;;;;;;7.55;4.88;;;;;;;4.29;100.00;96596.75;5310765;26;20014;-62
2024/04/17 07:47:16;;;;;;;8.15;4.93;;;;;;;4.30;100.00;96587.66;5325727;26;20103;-62
2024/04/17 07:49:43;;;;;;;8.88;5.05;;;;;;;4.49;100.00;96590.25;5323477;26;20001;-62
2024/04/17 07:52:10;;;;;;;10.23;5.97;;;;;;;4.56;100.00;96585.56;5304941;26;21039;-62
2024/04/17 07:54:36;;;;;;;10.43;5.65;;;;;;;4.66;100.00;96582.31;5330850;26;20001;-61
2024/04/17 07:57:04;;;;;;;10.85;6.00;;;;;;;4.72;100.00;96586.72;5322252;26;20017;-60
2024/04/17 07:59:30;;;;;;;10.48;6.13;;;;;;;4.85;100.00;96595.59;5328937;26;20001;-61
2024/04/17 08:01:58;;;;;;;9.93;6.18;;;;;;;5.15;100.00;96594.63;5324956;26;20016;-62
2024/04/17 08:04:24;;;;;;;11.43;6.65;;;;;;;5.17;100.00;96592.53;5318260;26;20078;-62
2024/04/17 08:06:51;;;;;;;12.43;7.10;;;;;;;5.01;100.00;96599.44;5297866;26;20508;-62
2024/04/17 08:09:18;;;;;;;11.13;7.00;;;;;;;4.84;100.00;96592.09;5306080;26;20076;-62
2024/04/17 08:11:45;;;;;;;10.55;6.43;;;;;;;4.72;100.00;96585.94;5318769;26;20045;-60
2024/04/17 08:14:11;;;;;;;11.55;7.70;;;;;;;4.79;100.00;96606.22;5301300;26;20037;-62
2024/04/17 08:16:38;;;;;;;11.82;6.65;;;;;;;4.63;100.00;96585.44;5324210;26;20683;-62
2024/04/17 08:19:05;;;;;;;12.13;6.80;;;;;;;4.66;100.00;96591.19;5330009;26;20017;-61
2024/04/17 08:21:31;;;;;;;9.93;6.35;;;;;;;4.78;100.00;96596.53;5324443;26;20092;-61
2024/04/17 08:23:58;;;;;;;13.13;6.72;;;;;;;4.63;100.00;96607.72;5305356;26;20013;-62
2024/04/17 08:26:25;;;;;;;8.15;5.28;;;;;;;4.52;100.00;96609.34;5315963;26;20012;-62
2024/04/17 08:28:51;;;;;;;9.15;4.78;;;;;;;4.20;100.00;96601.59;5331531;26;20086;-60
2024/04/17 08:31:18;;;;;;;8.50;5.20;;;;;;;3.92;100.00;96602.22;5328637;26;20412;-61
2024/04/17 08:33:44;;;;;;;7.07;4.43;;;;;;;3.76;100.00;96602.66;5311902;26;20002;-60
2024/04/17 08:36:11;;;;;;;9.73;5.28;;;;;;;3.87;100.00;96610.97;5314965;26;20373;-61
2024/04/17 08:38:39;;;;;;;9.05;5.00;;;;;;;3.98;100.00;96614.72;5303251;26;20001;-62
2024/04/17 08:41:07;;;;;;;7.53;4.82;;;;;;;3.88;100.00;96615.28;5323433;26;20440;-61
2024/04/17 08:43:36;;;;;;;9.25;4.45;;;;;;;3.95;100.00;96618.69;5318112;26;20025;-61
2024/04/17 08:46:04;;;;;;;9.60;4.85;;;;;;;3.97;100.00;96624.63;5311049;26;20028;-61
2024/04/17 08:48:32;;;;;;;10.02;4.43;;;;;;;3.79;100.00;96624.66;5302086;26;20410;-61
2024/04/17 08:51:00;;;;;;;7.75;4.53;;;;;;;4.06;100.00;96627.81;5309669;26;20023;-62
2024/04/17 08:53:29;;;;;;;9.50;5.22;;;;;;;3.92;100.00;96627.16;5301062;26;20008;-61
2024/04/17 08:55:56;;;;;;;8.60;4.78;;;;;;;4.16;100.00;96636.09;5316345;26;20480;-61
2024/04/17 08:58:23;;;;;;;8.68;4.45;;;;;;;4.28;100.00;96632.63;5311447;26;20361;-62
2024/04/17 09:00:51;;;;;;;10.20;5.00;;;;;;;4.39;100.00;96631.03;5300293;26;20029;-61
2024/04/17 09:03:25;;;;;;;9.02;4.53;;;;;;;4.17;100.00;96623.53;5312437;26;20009;-61
2024/04/17 09:05:53;;;;;;;7.85;5.18;;;;;;;4.18;100.00;96627.00;5326485;26;20056;-62
2024/04/17 09:08:24;;;;;;;9.63;5.97;;;;;;;4.47;100.00;96619.97;5318349;26;20487;-62
2024/04/17 09:10:51;;;;;;;14.45;7.85;;;;;;;4.51;100.00;96621.13;5330585;26;20001;-62
2024/04/17 09:13:18;;;;;;;14.23;8.07;;;;;;;4.84;100.00;96632.34;5326215;26;20079;-61
2024/04/17 09:15:45;;;;;;;12.45;8.10;;;;;;;4.89;100.00;96629.78;5321913;26;20016;-61
2024/04/17 09:18:13;;;;;;;15.23;9.15;;;;;;;5.03;100.00;96624.16;5323933;26;20005;-62
2024/04/17 09:20:40;;;;;;;13.15;7.80;;;;;;;4.72;100.00;96629.63;5330729;26;19997;-61
2024/04/17 09:23:10;;;;;;;14.35;9.10;;;;;;;4.82;100.00;96637.09;5328401;26;20005;-62
2024/04/17 09:25:37;;;;;;;14.68;9.77;;;;;;;4.96;100.00;96635.00;5316867;26;20008;-61
2024/04/17 09:28:05;;;;;;;15.93;9.38;;;;;;;5.15;100.00;96640.25;5328904;26;20024;-61
2024/04/17 09:30:31;;;;;;;17.55;10.20;;;;;;;4.89;100.00;96635.13;5339891;26;20027;-62
2024/04/17 09:32:58;;;;;;;14.57;9.82;;;;;;;5.11;100.00;96633.72;5330777;26;20012;-61
2024/04/17 09:35:27;;;;;;;12.75;8.27;;;;;;;4.86;100.00;96626.75;5324969;26;20001;-61
2024/04/17 09:37:53;;;;;;;10.68;7.13;;;;;;;5.04;100.00;96629.28;5318964;26;20033;-61
2024/04/17 09:40:20;;;;;;;11.05;6.90;;;;;;;5.11;100.00;96629.16;5320447;26;20044;-61
2024/04/17 09:42:49;;;;;;;9.45;6.55;;;;;;;5.15;100.00;96627.66;5329258;26;20411;-60
2024/04/17 09:45:22;;;;;;;8.68;6.35;;;;;;;5.09;100.00;96631.28;5313552;26;20020;-63
2024/04/17 09:47:49;;;;;;;10.13;5.93;;;;;;;5.08;100.00;96624.25;5319056;26;20721;-63
2024/04/17 09:50:22;;;;;;;14.88;7.63;;;;;;;5.67;100.00;96636.75;5319901;26;20343;-62
2024/04/17 09:52:53;;;;;;;12.68;8.48;;;;;;;5.95;100.00;96626.25;5329811;26;20016;-62
2024/04/17 09:55:22;;;;;;;14.57;8.70;;;;;;;6.03;100.00;96619.69;5327296;26;20009;-62
2024/04/17 09:57:49;;;;;;;12.68;7.60;;;;;;;5.97;100.00;96624.16;5329045;26;20029;-62
2024/04/17 10:00:21;;;;;;;13.18;8.07;;;;;;;5.79;100.00;96631.34;5325461;26;20009;-62
2024/04/17 10:02:50;;;;;;;13.20;7.85;;;;;;;5.80;100.00;96616.88;5322981;26;20054;-62
2024/04/17 10:05:17;;;;;;;11.02;6.57;;;;;;;5.70;100.00;96622.03;5327419;26;20079;-61
2024/04/17 10:07:45;;;;;;;11.77;7.38;;;;;;;5.98;100.00;96623.09;5330362;26;20015;-62
2024/04/17 10:10:15;;;;;;;15.02;7.90;;;;;;;6.00;100.00;96615.59;5332519;26;20028;-63
2024/04/17 10:12:46;;;;;;;12.13;7.43;;;;;;;6.09;100.00;96610.69;5325615;26;20004;-63
2024/04/17 10:15:13;;;;;;;12.93;7.70;;;;;;;5.80;100.00;96614.19;5328308;26;20001;-63
2024/04/17 10:17:40;;;;;;;10.52;7.28;;;;;;;5.68;100.00;96608.84;5332815;26;20356;-63
2024/04/17 10:20:24;;;;;;;13.48;8.27;;;;;;;5.84;100.00;96612.66;5333113;26;20673;-63
2024/04/17 10:22:51;;;;;;;12.65;7.15;;;;;;;5.89;100.00;96611.13;5325976;26;20943;-63
2024/04/17 10:25:20;;;;;;;10.98;6.93;;;;;;;6.36;100.00;96616.28;5330990;26;20005;-63
2024/04/17 10:28:11;;;;;;;16.42;7.55;;;;;;;6.63;100.00;96621.00;5326287;26;20013;-63
2024/04/17 10:30:42;;;;;;;8.88;5.18;;;;;;;6.66;100.00;96617.00;5327094;26;20086;-62
2024/04/17 10:33:36;;;;;;;13.20;5.38;;;;;;;6.96;100.00;96615.03;5330978;26;20532;-62
2024/04/17 10:36:05;;;;;;;12.70;5.60;;;;;;;7.21;100.00;96611.84;5300312;26;20536;-62
2024/04/17 10:38:33;;;;;;;9.18;5.45;;;;;;;6.86;100.00;96613.78;5331403;26;20025;-63
2024/04/17 10:41:05;;;;;;;10.02;5.95;;;;;;;7.23;100.00;96600.84;5334838;26;20404;-63
2024/04/17 10:43:34;;;;;;;10.05;5.47;;;;;;;6.88;100.00;96606.31;5324128;26;20001;-63
2024/04/17 10:46:06;;;;;;;9.32;5.78;;;;;;;7.00;100.00;96599.97;5332362;26;20738;-63
2024/04/17 10:48:50;;;;;;;11.60;5.80;;;;;;;7.28;100.00;96601.72;5311755;26;20009;-63
2024/04/17 10:51:18;;;;;;;10.35;5.53;;;;;;;7.77;100.00;96602.00;5324937;26;20020;-62
2024/04/17 10:53:48;;;;;;;12.23;5.90;;;;;;;7.75;100.00;96593.38;5323828;26;20057;-63
2024/04/17 10:56:16;;;;;;;14.52;6.65;;;;;;;7.39;100.00;96596.47;5325387;26;20004;-62
2024/04/17 10:58:43;;;;;;;9.20;5.38;;;;;;;7.88;100.00;96600.22;5333617;26;20577;-62
2024/04/17 11:01:13;;;;;;;17.30;6.28;;;;;;;8.00;100.00;96592.00;5332418;26;20005;-62
2024/04/17 11:03:40;;;;;;;11.57;5.07;;;;;;;8.03;100.00;96594.19;5315925;26;20009;-62
2024/04/17 11:06:09;;;;;;;11.13;5.00;;;;;;;8.53;100.00;96596.81;5332966;26;20021;-62
2024/04/17 11:08:41;;;;;;;8.77;4.78;;;;;;;8.13;100.00;96597.00;5331839;26;20833;-62
2024/04/17 11:11:21;;;;;;;10.15;4.45;;;;;;;8.84;100.00;96597.03;5301891;26;20005;-62
2024/04/17 11:13:49;;;;;;;8.00;4.03;;;;;;;8.35;100.00;96598.81;5322213;26;20017;-63
2024/04/17 11:16:16;;;;;;;9.60;4.10;;;;;;;8.67;100.00;96594.50;5328174;26;20721;-62
2024/04/17 11:18:43;;;;;;;10.82;4.13;;;;;;;8.85;100.00;96599.47;5330936;26;20361;-61
2024/04/17 11:21:11;;;;;;;9.88;3.92;;;;;;;8.46;100.00;96586.22;5331362;26;20013;-60
2024/04/17 11:23:42;;;;;;;5.88;3.67;;;;;;;7.89;100.00;96583.00;5344953;26;20005;-59
2024/04/17 11:26:10;;;;;;;9.30;4.22;;;;;;;8.01;100.00;96578.28;5331200;26;20001;-60
2024/04/17 11:28:44;;;;;;;7.22;4.00;;;;;;;7.72;100.00;96585.78;5334218;26;20481;-60
2024/04/17 11:31:16;;;;;;;9.90;3.85;;;;;;;7.55;100.00;96586.69;5335806;26;20001;-61